Nord Taipei — 3EYN2 — position and weather

sailwx.info

Track history (hours):
 
Tides and Currents Weather Stations Pressure Air Temp Water Temp Dewpoint Dewpoint Depression Visibility Wind Speed Wind Dir Waves Ship Positions

Nord Taipei

Last reported at 2018-Jul-18 10:23 UTC. Time now 2018-Jul-19 07:58 UTC.
Position S 26°02' E 153°31'.

Length 177 m; draft 9.8 m.

Type: Cargo ship. MMSI: 352031000.

Date/timePositionNaut miles runAvg speedWind from/ knotsBaromVisibWave heightAir tempDewpointWater temp
2018-Jul-18 10:23S 26°02' E 153°31'512.8
2018-Jul-18 09:58S 26°07' E 153°28'3212.8
2018-Jul-18 07:30S 26°37' E 153°17'4 0.5
2018-Jul-17 22:54S 26°41' E 153°17'0 0.1
2018-Jul-17 18:43S 26°41' E 153°16'1 4.3
2018-Jul-17 18:26S 26°42' E 153°15'8 8.1
2018-Jul-17 17:29S 26°49' E 153°11'5 9.6
2018-Jul-17 17:00S 26°53' E 153°10'613.0
2018-Jul-17 16:30S 26°59' E 153°14'611.5
2018-Jul-17 16:00S 27°03' E 153°18'612.4
2018-Jul-17 15:31S 27°09' E 153°21'612.1
2018-Jul-17 15:00S 27°15' E 153°19'612.4
2018-Jul-17 14:31S 27°18' E 153°13'510.1
2018-Jul-17 14:01S 27°22' E 153°10'3 6.4
2018-Jul-17 13:30S 27°25' E 153°09'0 0.0
2018-Jul-17 10:17S 27°25' E 153°09'0 0.0
2018-Jul-17 09:49S 27°25' E 153°09'0 0.0
2018-Jul-17 08:40S 27°25' E 153°09'0 0.0
2018-Jul-17 08:28S 27°25' E 153°09'0 0.0
2018-Jul-17 07:58S 27°25' E 153°09'0 0.0
2018-Jul-17 07:28S 27°25' E 153°09'0 0.0
2018-Jul-17 06:58S 27°25' E 153°09'0 0.0
2018-Jul-16 22:58S 27°25' E 153°09'0 0.0
2018-Jul-16 22:25S 27°25' E 153°09'0 0.0
2018-Jul-16 21:58S 27°25' E 153°09'0 0.0
2018-Jul-16 21:28S 27°25' E 153°09'0 0.0
2018-Jul-16 20:52S 27°25' E 153°09'0 0.0
2018-Jul-16 20:19S 27°25' E 153°09'0 0.0
2018-Jul-16 19:49S 27°25' E 153°09'0 0.0
2018-Jul-16 19:28S 27°25' E 153°09'0 0.0
2018-Jul-16 18:49S 27°25' E 153°09'0 0.0
2018-Jul-16 17:10S 27°25' E 153°09'0 0.0
2018-Jul-16 16:58S 27°25' E 153°09'0 0.0
2018-Jul-16 16:28S 27°25' E 153°09'0 0.0
2018-Jul-16 15:52S 27°25' E 153°09'0 0.0
2018-Jul-16 15:28S 27°25' E 153°09'0 0.0
2018-Jul-16 14:40S 27°25' E 153°09'0 0.0
2018-Jul-16 14:25S 27°25' E 153°09'0 0.0
2018-Jul-16 13:58S 27°25' E 153°09'0 0.0
2018-Jul-16 13:25S 27°25' E 153°09'0 0.0
2018-Jul-16 12:52S 27°25' E 153°09'0 0.0
2018-Jul-16 12:28S 27°25' E 153°09'0 0.0
2018-Jul-16 11:55S 27°25' E 153°09'0 0.0
2018-Jul-16 07:37S 27°25' E 153°09'0 0.0
2018-Jul-16 07:28S 27°25' E 153°09'0 0.0
2018-Jul-16 06:58S 27°25' E 153°09'0 0.0
2018-Jul-15 22:58S 27°25' E 153°09'0 0.0
2018-Jul-15 22:28S 27°25' E 153°09'0 0.0
2018-Jul-15 21:58S 27°25' E 153°09'0 0.0
2018-Jul-15 21:25S 27°25' E 153°09'0 0.0
2018-Jul-15 20:43S 27°25' E 153°09'0 0.0
2018-Jul-15 20:28S 27°25' E 153°09'0 0.0
2018-Jul-15 19:55S 27°25' E 153°09'0 0.0
2018-Jul-15 19:28S 27°25' E 153°09'0 0.0
2018-Jul-15 18:55S 27°25' E 153°09'0 0.0
2018-Jul-15 18:28S 27°25' E 153°09'0 0.0
2018-Jul-15 17:58S 27°25' E 153°09'0 0.0
2018-Jul-15 16:31S 27°25' E 153°09'0 0.0
2018-Jul-15 16:07S 27°25' E 153°09'0 0.0
2018-Jul-15 15:58S 27°25' E 153°09'0 0.0
2018-Jul-15 15:19S 27°25' E 153°09'0 0.0
2018-Jul-15 14:52S 27°25' E 153°09'0 0.0
2018-Jul-15 14:13S 27°25' E 153°09'0 0.0
2018-Jul-15 13:52S 27°25' E 153°09'0 0.0
2018-Jul-15 11:28S 27°25' E 153°09'0 0.0
2018-Jul-15 10:55S 27°25' E 153°09'0 0.0
2018-Jul-15 10:28S 27°25' E 153°09'0 0.0
2018-Jul-15 09:58S 27°25' E 153°09'0 0.0
2018-Jul-15 09:28S 27°25' E 153°09'0 0.0
2018-Jul-15 08:58S 27°25' E 153°09'0 0.0
2018-Jul-15 07:31S 27°25' E 153°09'0 0.0
2018-Jul-15 07:22S 27°25' E 153°09'0 0.0
2018-Jul-14 22:07S 27°25' E 153°09'0 0.0
2018-Jul-14 21:43S 27°25' E 153°09'0 0.0
2018-Jul-14 21:28S 27°25' E 153°09'0 0.0
2018-Jul-14 20:55S 27°25' E 153°09'0 0.0
2018-Jul-14 20:28S 27°25' E 153°09'0 0.0
2018-Jul-14 19:55S 27°25' E 153°09'0 0.0
2018-Jul-14 19:22S 27°25' E 153°09'0 0.0
2018-Jul-14 18:55S 27°25' E 153°09'0 0.0
2018-Jul-14 00:10S 27°25' E 153°09'0 1.7
2018-Jul-14 00:00S 27°25' E 153°09'4 7.5
2018-Jul-13 23:30S 27°21' E 153°11'510.4
2018-Jul-13 23:00S 27°17' E 153°14'3 6.1
2018-Jul-13 22:30S 27°16' E 153°17'3 5.6
2018-Jul-13 22:00S 27°14' E 153°20'713.0
2018-Jul-13 21:28S 27°07' E 153°21'612.7
2018-Jul-13 21:00S 27°03' E 153°16'612.9
2018-Jul-13 20:30S 26°57' E 153°13'612.5
2018-Jul-13 20:00S 26°52' E 153°09'710.0
2018-Jul-13 19:18S 26°45' E 153°11'4 5.7
2018-Jul-13 18:33S 26°41' E 153°13'2 6.2
2018-Jul-13 18:12S 26°39' E 153°15'  
Track history (hours):
 
Tides and Currents Weather Stations Pressure Air Temp Water Temp Dewpoint Dewpoint Depression Visibility Wind Speed Wind Dir Waves Ship Positions

Nord Taipei

Last reported at 2018-Jul-18 10:23 UTC. Time now 2018-Jul-19 07:58 UTC.
Position S 26°02' E 153°31'.

Length 177 m; draft 9.8 m.

Type: Cargo ship. MMSI: 352031000.

Date/timePositionNaut miles runAvg speedWind from/ knotsBaromVisibWave heightAir tempDewpointWater temp
2018-Jul-18 10:23S 26°02' E 153°31'512.8
2018-Jul-18 09:58S 26°07' E 153°28'3212.8
2018-Jul-18 07:30S 26°37' E 153°17'4 0.5
2018-Jul-17 22:54S 26°41' E 153°17'0 0.1
2018-Jul-17 18:43S 26°41' E 153°16'1 4.3
2018-Jul-17 18:26S 26°42' E 153°15'8 8.1
2018-Jul-17 17:29S 26°49' E 153°11'5 9.6
2018-Jul-17 17:00S 26°53' E 153°10'613.0
2018-Jul-17 16:30S 26°59' E 153°14'611.5
2018-Jul-17 16:00S 27°03' E 153°18'612.4
2018-Jul-17 15:31S 27°09' E 153°21'612.1
2018-Jul-17 15:00S 27°15' E 153°19'612.4
2018-Jul-17 14:31S 27°18' E 153°13'510.1
2018-Jul-17 14:01S 27°22' E 153°10'3 6.4
2018-Jul-17 13:30S 27°25' E 153°09'0 0.0
2018-Jul-17 10:17S 27°25' E 153°09'0 0.0
2018-Jul-17 09:49S 27°25' E 153°09'0 0.0
2018-Jul-17 08:40S 27°25' E 153°09'0 0.0
2018-Jul-17 08:28S 27°25' E 153°09'0 0.0
2018-Jul-17 07:58S 27°25' E 153°09'0 0.0
2018-Jul-17 07:28S 27°25' E 153°09'0 0.0
2018-Jul-17 06:58S 27°25' E 153°09'0 0.0
2018-Jul-16 22:58S 27°25' E 153°09'0 0.0
2018-Jul-16 22:25S 27°25' E 153°09'0 0.0
2018-Jul-16 21:58S 27°25' E 153°09'0 0.0
2018-Jul-16 21:28S 27°25' E 153°09'0 0.0
2018-Jul-16 20:52S 27°25' E 153°09'0 0.0
2018-Jul-16 20:19S 27°25' E 153°09'0 0.0
2018-Jul-16 19:49S 27°25' E 153°09'0 0.0
2018-Jul-16 19:28S 27°25' E 153°09'0 0.0
2018-Jul-16 18:49S 27°25' E 153°09'0 0.0
2018-Jul-16 17:10S 27°25' E 153°09'0 0.0
2018-Jul-16 16:58S 27°25' E 153°09'0 0.0
2018-Jul-16 16:28S 27°25' E 153°09'0 0.0
2018-Jul-16 15:52S 27°25' E 153°09'0 0.0
2018-Jul-16 15:28S 27°25' E 153°09'0 0.0
2018-Jul-16 14:40S 27°25' E 153°09'0 0.0
2018-Jul-16 14:25S 27°25' E 153°09'0 0.0
2018-Jul-16 13:58S 27°25' E 153°09'0 0.0
2018-Jul-16 13:25S 27°25' E 153°09'0 0.0
2018-Jul-16 12:52S 27°25' E 153°09'0 0.0
2018-Jul-16 12:28S 27°25' E 153°09'0 0.0
2018-Jul-16 11:55S 27°25' E 153°09'0 0.0
2018-Jul-16 07:37S 27°25' E 153°09'0 0.0
2018-Jul-16 07:28S 27°25' E 153°09'0 0.0
2018-Jul-16 06:58S 27°25' E 153°09'0 0.0
2018-Jul-15 22:58S 27°25' E 153°09'0 0.0
2018-Jul-15 22:28S 27°25' E 153°09'0 0.0
2018-Jul-15 21:58S 27°25' E 153°09'0 0.0
2018-Jul-15 21:25S 27°25' E 153°09'0 0.0
2018-Jul-15 20:43S 27°25' E 153°09'0 0.0
2018-Jul-15 20:28S 27°25' E 153°09'0 0.0
2018-Jul-15 19:55S 27°25' E 153°09'0 0.0
2018-Jul-15 19:28S 27°25' E 153°09'0 0.0
2018-Jul-15 18:55S 27°25' E 153°09'0 0.0
2018-Jul-15 18:28S 27°25' E 153°09'0 0.0
2018-Jul-15 17:58S 27°25' E 153°09'0 0.0
2018-Jul-15 16:31S 27°25' E 153°09'0 0.0
2018-Jul-15 16:07S 27°25' E 153°09'0 0.0
2018-Jul-15 15:58S 27°25' E 153°09'0 0.0
2018-Jul-15 15:19S 27°25' E 153°09'0 0.0
2018-Jul-15 14:52S 27°25' E 153°09'0 0.0
2018-Jul-15 14:13S 27°25' E 153°09'0 0.0
2018-Jul-15 13:52S 27°25' E 153°09'0 0.0
2018-Jul-15 11:28S 27°25' E 153°09'0 0.0
2018-Jul-15 10:55S 27°25' E 153°09'0 0.0
2018-Jul-15 10:28S 27°25' E 153°09'0 0.0
2018-Jul-15 09:58S 27°25' E 153°09'0 0.0
2018-Jul-15 09:28S 27°25' E 153°09'0 0.0
2018-Jul-15 08:58S 27°25' E 153°09'0 0.0
2018-Jul-15 07:31S 27°25' E 153°09'0 0.0
2018-Jul-15 07:22S 27°25' E 153°09'0 0.0
2018-Jul-14 22:07S 27°25' E 153°09'0 0.0
2018-Jul-14 21:43S 27°25' E 153°09'0 0.0
2018-Jul-14 21:28S 27°25' E 153°09'0 0.0
2018-Jul-14 20:55S 27°25' E 153°09'0 0.0
2018-Jul-14 20:28S 27°25' E 153°09'0 0.0
2018-Jul-14 19:55S 27°25' E 153°09'0 0.0
2018-Jul-14 19:22S 27°25' E 153°09'0 0.0
2018-Jul-14 18:55S 27°25' E 153°09'0 0.0
2018-Jul-14 00:10S 27°25' E 153°09'0 1.7
2018-Jul-14 00:00S 27°25' E 153°09'4 7.5
2018-Jul-13 23:30S 27°21' E 153°11'510.4
2018-Jul-13 23:00S 27°17' E 153°14'3 6.1
2018-Jul-13 22:30S 27°16' E 153°17'3 5.6
2018-Jul-13 22:00S 27°14' E 153°20'713.0
2018-Jul-13 21:28S 27°07' E 153°21'612.7
2018-Jul-13 21:00S 27°03' E 153°16'612.9
2018-Jul-13 20:30S 26°57' E 153°13'612.5
2018-Jul-13 20:00S 26°52' E 153°09'710.0
2018-Jul-13 19:18S 26°45' E 153°11'4 5.7
2018-Jul-13 18:33S 26°41' E 153°13'2 6.2
2018-Jul-13 18:12S 26°39' E 153°15'  

Dump ship's entire track history